createdAt,value
2018-12-15T00:01:06.479Z,0.80
2018-12-15T00:03:34.265Z,0.90
2018-12-15T00:06:01.756Z,0.80
2018-12-15T00:08:29.230Z,0.80
2018-12-15T00:10:56.711Z,0.80
2018-12-15T00:13:24.202Z,1.00
2018-12-15T00:15:51.933Z,0.90
2018-12-15T00:18:19.597Z,0.90
2018-12-15T00:20:47.095Z,0.90
2018-12-15T00:23:14.566Z,0.90
2018-12-15T00:25:42.066Z,0.90
2018-12-15T00:28:09.549Z,0.90
2018-12-15T00:30:37.216Z,1.20
2018-12-15T00:33:04.808Z,0.90
2018-12-15T00:35:32.306Z,0.90
2018-12-15T00:37:59.786Z,0.90
2018-12-15T00:40:27.270Z,1.00
2018-12-15T00:42:54.819Z,1.00
2018-12-15T00:45:22.306Z,1.10
2018-12-15T00:47:49.998Z,1.20
2018-12-15T00:50:17.528Z,1.10
2018-12-15T00:52:45.009Z,1.10
2018-12-15T00:55:12.507Z,0.90
2018-12-15T00:57:40.453Z,1.00
2018-12-15T01:00:08.069Z,0.80
2018-12-15T01:02:35.546Z,0.80
2018-12-15T01:05:03.089Z,0.90
2018-12-15T01:07:30.643Z,0.90
2018-12-15T01:09:58.485Z,1.00
2018-12-15T01:12:25.953Z,0.90
2018-12-15T01:14:53.432Z,0.90
2018-12-15T01:17:21.196Z,0.80
2018-12-15T01:19:48.689Z,0.80
2018-12-15T01:22:16.173Z,0.70
2018-12-15T01:24:43.624Z,0.70
2018-12-15T01:27:11.132Z,0.80
2018-12-15T01:29:38.714Z,0.70
2018-12-15T01:32:06.196Z,0.70
2018-12-15T01:34:33.678Z,0.70
2018-12-15T01:37:01.178Z,0.80
2018-12-15T01:39:28.655Z,0.80
2018-12-15T01:41:56.138Z,0.70
2018-12-15T01:44:23.612Z,0.60
2018-12-15T01:46:51.089Z,0.70
2018-12-15T01:49:18.571Z,0.60
2018-12-15T01:51:46.059Z,0.50
2018-12-15T01:54:13.547Z,0.60
2018-12-15T01:56:41.038Z,0.70
2018-12-15T01:59:08.536Z,0.60
2018-12-15T02:01:36.039Z,0.50
2018-12-15T02:04:03.573Z,0.60
2018-12-15T02:06:31.098Z,0.60
2018-12-15T02:08:58.566Z,0.40
2018-12-15T02:11:26.069Z,0.60
2018-12-15T02:13:53.544Z,0.80
2018-12-15T02:16:21.040Z,0.60
2018-12-15T02:18:48.507Z,0.50
2018-12-15T02:21:16.245Z,0.60
2018-12-15T02:23:43.710Z,0.70
2018-12-15T02:26:11.203Z,0.60
2018-12-15T02:28:39.639Z,0.50
2018-12-15T02:31:07.132Z,0.40
2018-12-15T02:33:34.606Z,0.50
2018-12-15T02:36:02.109Z,0.40
2018-12-15T02:38:29.589Z,0.40
2018-12-15T02:40:57.069Z,0.50
2018-12-15T02:43:25.334Z,0.50
2018-12-15T02:45:53.074Z,0.50
2018-12-15T02:48:20.550Z,0.60
2018-12-15T02:50:48.020Z,0.70
2018-12-15T02:53:15.512Z,0.60
2018-12-15T02:55:42.984Z,0.70
2018-12-15T02:58:10.496Z,0.70
2018-12-15T03:00:38.060Z,0.50
2018-12-15T03:03:05.605Z,0.70
2018-12-15T03:05:33.072Z,0.70
2018-12-15T03:08:00.582Z,0.50
2018-12-15T03:10:28.082Z,0.50
2018-12-15T03:12:55.627Z,0.50
2018-12-15T03:15:23.150Z,0.50
2018-12-15T03:17:51.310Z,0.60
2018-12-15T03:20:19.122Z,0.70
2018-12-15T03:22:46.605Z,0.90
2018-12-15T03:25:14.076Z,0.90
2018-12-15T03:27:41.563Z,0.80
2018-12-15T03:30:09.091Z,0.60
2018-12-15T03:32:36.584Z,0.70
2018-12-15T03:35:04.752Z,0.70
2018-12-15T03:37:32.217Z,0.80
2018-12-15T03:39:59.702Z,0.80
2018-12-15T03:42:27.193Z,0.60
2018-12-15T03:44:54.683Z,0.30
2018-12-15T03:47:22.281Z,0.60
2018-12-15T03:49:49.747Z,0.70
2018-12-15T03:52:17.239Z,0.80
2018-12-15T03:54:44.734Z,0.50
2018-12-15T03:57:12.214Z,0.30
2018-12-15T03:59:40.064Z,0.30
2018-12-15T04:02:07.800Z,0.40
2018-12-15T04:04:35.354Z,0.40
2018-12-15T04:07:02.829Z,0.30
2018-12-15T04:09:30.309Z,0.30
2018-12-15T04:11:57.781Z,0.20
2018-12-15T04:14:25.273Z,0.20
2018-12-15T04:16:52.745Z,0.20
2018-12-15T04:19:20.223Z,0.20
2018-12-15T04:21:47.711Z,0.20
2018-12-15T04:24:15.301Z,0.20
2018-12-15T04:26:43.824Z,0.20
2018-12-15T04:29:11.356Z,0.20
2018-12-15T04:31:39.508Z,0.20
2018-12-15T04:34:07.011Z,0.30
2018-12-15T04:36:34.492Z,0.20
2018-12-15T04:39:02.088Z,0.30
2018-12-15T04:41:30.034Z,0.30
2018-12-15T04:43:57.984Z,0.30
2018-12-15T04:46:25.444Z,0.20
2018-12-15T04:48:52.946Z,0.40
2018-12-15T04:51:20.407Z,0.30
2018-12-15T04:53:47.907Z,0.40
2018-12-15T04:56:16.390Z,0.20
2018-12-15T04:58:43.886Z,0.30
2018-12-15T05:01:11.717Z,0.20
2018-12-15T05:03:39.200Z,0.30
2018-12-15T05:06:06.677Z,0.30
2018-12-15T05:08:34.274Z,0.20
2018-12-15T05:11:01.738Z,0.30
2018-12-15T05:13:29.254Z,0.10
2018-12-15T05:15:56.742Z,0.10
2018-12-15T05:18:24.428Z,0.10
2018-12-15T05:20:51.911Z,0.30
2018-12-15T05:23:19.389Z,0.20
2018-12-15T05:25:47.143Z,0.20
2018-12-15T05:28:14.611Z,0.30
2018-12-15T05:30:42.113Z,0.10
2018-12-15T05:33:09.586Z,0.30
2018-12-15T05:35:37.081Z,0.10
2018-12-15T05:38:04.559Z,0.20
2018-12-15T05:40:32.442Z,0.10
2018-12-15T05:42:59.911Z,0.10
2018-12-15T05:45:27.405Z,0.00
2018-12-15T05:47:54.870Z,0.00
2018-12-15T05:50:22.355Z,-0.10
2018-12-15T05:52:49.831Z,0.00
2018-12-15T05:55:17.322Z,0.00
2018-12-15T05:57:44.805Z,0.00
2018-12-15T06:00:12.838Z,0.20
2018-12-15T06:02:40.664Z,0.10
2018-12-15T06:05:09.050Z,0.10
2018-12-15T06:07:37.038Z,0.10
2018-12-15T06:10:05.246Z,0.40
2018-12-15T06:12:32.726Z,0.20
2018-12-15T06:15:00.516Z,0.40
2018-12-15T06:17:27.984Z,0.20
2018-12-15T06:19:56.334Z,0.10
2018-12-15T06:22:23.803Z,0.10
2018-12-15T06:24:51.292Z,0.40
2018-12-15T06:27:19.550Z,0.30
2018-12-15T06:29:47.549Z,0.20
2018-12-15T06:32:15.056Z,0.20
2018-12-15T06:34:42.543Z,0.10
2018-12-15T06:37:10.106Z,0.30
2018-12-15T06:39:37.572Z,0.40
2018-12-15T06:42:05.955Z,0.20
2018-12-15T06:44:33.431Z,0.30
2018-12-15T06:47:00.923Z,0.30
2018-12-15T06:49:28.553Z,0.10
2018-12-15T06:51:56.029Z,0.20
2018-12-15T06:54:24.501Z,0.30
2018-12-15T06:56:51.985Z,0.30
2018-12-15T06:59:19.472Z,0.50
2018-12-15T07:01:46.954Z,0.40
2018-12-15T07:04:14.433Z,0.30
2018-12-15T07:06:42.468Z,0.30
2018-12-15T07:09:09.942Z,0.50
2018-12-15T07:11:37.433Z,0.60
2018-12-15T07:14:05.230Z,0.40
2018-12-15T07:16:32.782Z,0.70
2018-12-15T07:19:00.311Z,0.50
2018-12-15T07:21:27.782Z,0.70
2018-12-15T07:23:55.294Z,0.50
2018-12-15T07:26:23.164Z,0.30
2018-12-15T07:28:51.424Z,0.20
2018-12-15T07:31:18.919Z,0.10
2018-12-15T07:33:46.533Z,0.10
2018-12-15T07:36:14.022Z,0.20
2018-12-15T07:38:41.497Z,0.10
2018-12-15T07:41:08.993Z,0.20
2018-12-15T07:43:36.473Z,0.60
2018-12-15T07:46:04.035Z,0.40
2018-12-15T07:48:31.527Z,0.40
2018-12-15T07:50:58.999Z,0.60
2018-12-15T07:53:26.521Z,0.50
2018-12-15T07:55:54.011Z,0.40
2018-12-15T07:58:22.665Z,0.40
2018-12-15T08:00:50.163Z,0.40
2018-12-15T08:03:18.583Z,0.80
2018-12-15T08:05:46.157Z,0.80
2018-12-15T08:08:13.654Z,0.70
2018-12-15T08:10:46.829Z,0.60
2018-12-15T08:13:16.290Z,0.80
2018-12-15T08:15:43.785Z,0.60
2018-12-15T08:18:11.258Z,0.80
2018-12-15T08:20:38.944Z,0.70
2018-12-15T08:23:06.419Z,0.60
2018-12-15T08:25:33.927Z,0.40
2018-12-15T08:28:01.393Z,0.30
2018-12-15T08:30:28.898Z,0.20
2018-12-15T08:32:56.465Z,0.30
2018-12-15T08:35:23.949Z,0.40
2018-12-15T08:37:51.462Z,0.40
2018-12-15T08:40:18.942Z,0.30
2018-12-15T08:42:46.435Z,0.50
2018-12-15T08:45:13.914Z,0.40
2018-12-15T08:47:41.519Z,0.40
2018-12-15T08:50:09.821Z,0.30
2018-12-15T08:52:37.332Z,0.20
2018-12-15T08:55:05.726Z,0.20
2018-12-15T08:57:33.219Z,0.50
2018-12-15T09:00:00.706Z,0.30
2018-12-15T09:02:28.219Z,0.30
2018-12-15T09:04:55.724Z,0.40
2018-12-15T09:07:23.470Z,0.30
2018-12-15T09:09:50.954Z,0.30
2018-12-15T09:12:18.430Z,0.20
2018-12-15T09:14:45.948Z,0.20
2018-12-15T09:17:13.435Z,0.30
2018-12-15T09:19:40.920Z,0.30
2018-12-15T09:22:11.374Z,0.20
2018-12-15T09:24:37.974Z,0.30
2018-12-15T09:27:06.364Z,0.30
2018-12-15T09:29:33.854Z,0.20
2018-12-15T09:32:02.251Z,0.30
2018-12-15T09:34:29.751Z,0.30
2018-12-15T09:36:57.252Z,0.40
2018-12-15T09:39:24.729Z,0.60
2018-12-15T09:41:52.215Z,0.50
2018-12-15T09:44:19.710Z,0.50
2018-12-15T09:46:47.176Z,0.40
2018-12-15T09:49:17.797Z,0.60
2018-12-15T09:51:44.148Z,0.60
2018-12-15T09:54:11.654Z,0.40
2018-12-15T09:56:39.338Z,0.50
2018-12-15T09:59:06.837Z,0.80
2018-12-15T10:01:34.306Z,0.50
2018-12-15T10:04:01.836Z,0.40
2018-12-15T10:06:29.311Z,0.60
2018-12-15T10:08:57.546Z,0.60
2018-12-15T10:11:25.046Z,0.80
2018-12-15T10:13:53.318Z,0.70
2018-12-15T10:16:20.890Z,0.90
2018-12-15T10:18:48.382Z,0.90
2018-12-15T10:21:15.843Z,0.70
2018-12-15T10:23:43.339Z,0.60
2018-12-15T10:26:10.830Z,0.70
2018-12-15T10:28:38.328Z,0.70
2018-12-15T10:31:11.432Z,0.60
2018-12-15T10:33:38.986Z,0.50
2018-12-15T10:36:06.514Z,0.40
2018-12-15T10:38:35.025Z,0.60
2018-12-15T10:41:02.510Z,0.60
2018-12-15T10:43:30.009Z,0.90
2018-12-15T10:45:57.489Z,0.70
2018-12-15T10:48:24.972Z,0.90
2018-12-15T10:50:52.470Z,1.10
2018-12-15T10:53:19.956Z,1.00
2018-12-15T10:55:47.441Z,1.50
2018-12-15T10:58:14.917Z,0.80
2018-12-15T11:00:48.184Z,0.60
2018-12-15T11:03:15.719Z,0.70
2018-12-15T11:05:43.215Z,0.70
2018-12-15T11:08:10.694Z,0.70
2018-12-15T11:10:38.195Z,1.30
2018-12-15T11:13:05.726Z,0.80
2018-12-15T11:15:33.201Z,0.70
2018-12-15T11:18:00.689Z,1.00
2018-12-15T11:20:28.199Z,1.20
2018-12-15T11:22:55.689Z,1.00
2018-12-15T11:25:23.182Z,0.80
2018-12-15T11:27:50.818Z,0.90
2018-12-15T11:30:18.310Z,1.30
2018-12-15T11:32:45.804Z,1.50
2018-12-15T11:35:14.170Z,1.40
2018-12-15T11:37:41.635Z,1.40
2018-12-15T11:40:09.134Z,1.10
2018-12-15T11:42:36.613Z,1.10
2018-12-15T11:45:05.238Z,1.00
2018-12-15T11:47:32.944Z,1.10
2018-12-15T11:50:00.422Z,0.80
2018-12-15T11:52:27.934Z,0.70
2018-12-15T11:54:55.423Z,0.70
2018-12-15T11:57:22.923Z,0.70
2018-12-15T11:59:50.415Z,0.70
2018-12-15T12:02:17.900Z,0.70
2018-12-15T12:04:45.372Z,1.20
2018-12-15T12:07:12.902Z,1.00
2018-12-15T12:09:40.368Z,1.40
2018-12-15T12:12:07.892Z,1.20
2018-12-15T12:14:35.505Z,0.90
2018-12-15T12:17:03.044Z,0.70
2018-12-15T12:19:30.525Z,1.20
2018-12-15T12:21:58.019Z,1.00
2018-12-15T12:24:25.524Z,1.20
2018-12-15T12:26:53.093Z,1.10
2018-12-15T12:29:20.588Z,0.90
2018-12-15T12:31:48.073Z,1.30
2018-12-15T12:34:15.546Z,0.70
2018-12-15T12:36:43.039Z,1.00
2018-12-15T12:39:10.505Z,1.30
2018-12-15T12:41:38.018Z,1.10
2018-12-15T12:44:05.503Z,0.80
2018-12-15T12:46:34.091Z,0.80
2018-12-15T12:49:01.562Z,0.80
2018-12-15T12:51:29.065Z,1.00
2018-12-15T12:53:56.567Z,0.90
2018-12-15T12:56:24.070Z,0.80
2018-12-15T12:58:51.549Z,1.00
2018-12-15T13:01:19.019Z,0.90
2018-12-15T13:03:46.509Z,1.20
2018-12-15T13:06:14.025Z,1.10
2018-12-15T13:08:41.555Z,0.90
2018-12-15T13:11:09.047Z,0.80
2018-12-15T13:13:36.535Z,1.10
2018-12-15T13:16:04.039Z,0.90
2018-12-15T13:18:31.542Z,0.90
2018-12-15T13:20:59.015Z,0.90
2018-12-15T13:23:26.495Z,0.90
2018-12-15T13:25:53.982Z,1.00
2018-12-15T13:28:21.467Z,0.90
2018-12-15T13:30:48.962Z,1.00
2018-12-15T13:33:32.148Z,1.00
2018-12-15T13:35:59.672Z,1.20
2018-12-15T13:38:27.155Z,1.00
2018-12-15T13:40:54.707Z,0.80
2018-12-15T13:43:22.200Z,0.90
2018-12-15T13:45:49.678Z,0.80
2018-12-15T13:48:17.193Z,0.70
2018-12-15T13:50:44.680Z,0.60
2018-12-15T13:53:12.148Z,0.50
2018-12-15T13:55:39.631Z,0.60
2018-12-15T13:58:07.294Z,0.80
2018-12-15T14:00:34.765Z,0.80
2018-12-15T14:03:02.250Z,0.80
2018-12-15T14:05:30.291Z,0.70
2018-12-15T14:07:57.819Z,0.80
2018-12-15T14:10:26.126Z,0.60
2018-12-15T14:12:53.617Z,0.60
2018-12-15T14:15:21.096Z,0.60
2018-12-15T14:17:49.453Z,0.70
2018-12-15T14:20:17.268Z,0.60
2018-12-15T14:22:44.744Z,0.60
2018-12-15T14:25:12.298Z,0.60
2018-12-15T14:27:40.571Z,0.60
2018-12-15T14:30:08.278Z,0.50
2018-12-15T14:32:36.361Z,0.90
2018-12-15T14:35:05.883Z,0.70
2018-12-15T14:37:33.358Z,0.60
2018-12-15T14:40:00.843Z,0.80
2018-12-15T14:42:28.323Z,1.00
2018-12-15T14:44:55.810Z,1.00
2018-12-15T14:47:23.499Z,0.90
2018-12-15T14:49:50.977Z,0.70
2018-12-15T14:52:18.530Z,0.60
2018-12-15T14:54:46.173Z,0.60
2018-12-15T14:57:15.597Z,0.70
2018-12-15T14:59:43.095Z,0.50
2018-12-15T15:02:11.812Z,1.10
2018-12-15T15:04:40.749Z,1.00
2018-12-15T15:07:10.088Z,0.60
2018-12-15T15:09:38.915Z,0.50
2018-12-15T15:12:08.407Z,0.60
2018-12-15T15:14:37.760Z,0.60
2018-12-15T15:17:06.115Z,0.60
2018-12-15T15:19:35.971Z,0.60
2018-12-15T15:22:04.743Z,0.90
2018-12-15T15:24:33.127Z,0.60
2018-12-15T15:27:01.964Z,0.80
2018-12-15T15:29:30.632Z,0.90
2018-12-15T15:31:59.213Z,1.10
2018-12-15T15:34:28.966Z,0.80
2018-12-15T15:36:57.350Z,0.60
2018-12-15T15:39:24.903Z,0.50
2018-12-15T15:41:52.382Z,0.40
2018-12-15T15:44:19.876Z,0.70
2018-12-15T15:46:47.476Z,0.70
2018-12-15T15:49:14.983Z,0.70
2018-12-15T15:51:42.476Z,0.60
2018-12-15T15:54:09.980Z,0.70
2018-12-15T15:56:37.443Z,0.60
2018-12-15T15:59:04.922Z,0.50
2018-12-15T16:01:32.405Z,0.40
2018-12-15T16:04:03.175Z,0.20
2018-12-15T16:06:31.952Z,0.70
2018-12-15T16:09:03.484Z,0.60
2018-12-15T16:11:32.756Z,0.50
2018-12-15T16:14:01.973Z,0.30
2018-12-15T16:16:34.282Z,0.40
2018-12-15T16:19:02.952Z,0.50
2018-12-15T16:21:33.736Z,0.70
2018-12-15T16:24:02.876Z,0.50
2018-12-15T16:26:32.195Z,0.40
2018-12-15T16:29:01.922Z,0.40
2018-12-15T16:31:33.041Z,0.50
2018-12-15T16:34:03.100Z,0.30
2018-12-15T16:36:32.205Z,0.20
2018-12-15T16:39:01.760Z,0.10
2018-12-15T16:41:31.038Z,0.30
2018-12-15T16:43:59.828Z,0.30
2018-12-15T16:46:30.142Z,0.20
2018-12-15T16:48:59.405Z,0.50
2018-12-15T16:51:30.310Z,0.30
2018-12-15T16:54:01.370Z,0.40
2018-12-15T16:56:32.082Z,0.40
2018-12-15T16:59:04.221Z,0.30
2018-12-15T17:01:37.741Z,0.10
2018-12-15T17:04:09.127Z,0.00
2018-12-15T17:06:38.660Z,0.00
2018-12-15T17:09:10.681Z,0.00
2018-12-15T17:11:41.265Z,-0.10
2018-12-15T17:14:12.865Z,0.10
2018-12-15T17:16:43.403Z,0.30
2018-12-15T17:19:11.021Z,0.10
2018-12-15T17:21:40.741Z,0.00
2018-12-15T17:24:08.299Z,-0.10
2018-12-15T17:26:35.845Z,0.10
2018-12-15T17:29:03.398Z,-0.10
2018-12-15T17:31:30.902Z,0.20
2018-12-15T17:33:58.489Z,0.20
2018-12-15T17:36:25.983Z,0.20
2018-12-15T17:38:53.469Z,0.30
2018-12-15T17:41:20.966Z,0.30
2018-12-15T17:43:48.442Z,0.30
2018-12-15T17:46:15.992Z,0.40
2018-12-15T17:48:43.601Z,0.70
2018-12-15T17:51:11.150Z,0.40
2018-12-15T17:53:38.644Z,0.20
2018-12-15T17:56:06.126Z,0.40
2018-12-15T17:58:33.622Z,0.40
2018-12-15T18:01:01.108Z,0.40
2018-12-15T18:03:28.594Z,0.20
2018-12-15T18:05:56.081Z,0.20
2018-12-15T18:08:23.564Z,0.20
2018-12-15T18:10:51.050Z,0.40
2018-12-15T18:13:18.538Z,0.60
2018-12-15T18:15:46.154Z,0.50
2018-12-15T18:18:13.641Z,0.50
2018-12-15T18:20:58.495Z,0.30
2018-12-15T18:23:51.368Z,0.60
2018-12-15T18:26:20.631Z,0.40
2018-12-15T18:29:11.906Z,0.70
2018-12-15T18:31:41.796Z,0.30
2018-12-15T18:34:23.605Z,0.20
2018-12-15T18:36:57.049Z,0.20
2018-12-15T18:39:27.378Z,0.40
2018-12-15T18:42:10.980Z,0.30
2018-12-15T18:53:48.983Z,0.50
2018-12-15T18:56:16.467Z,0.30
2018-12-15T19:01:54.025Z,0.30
2018-12-15T19:04:23.664Z,0.30
2018-12-15T19:06:53.421Z,0.40
2018-12-15T19:09:20.975Z,0.30
2018-12-15T19:11:48.458Z,0.40
2018-12-15T19:14:15.967Z,0.40
2018-12-15T19:16:43.453Z,0.50
2018-12-15T19:19:10.998Z,0.40
2018-12-15T19:21:38.481Z,0.30
2018-12-15T19:24:05.979Z,0.30
2018-12-15T19:26:33.468Z,0.40
2018-12-15T19:29:00.970Z,0.60
2018-12-15T19:31:28.444Z,0.30
2018-12-15T19:33:55.922Z,0.30
2018-12-15T19:36:23.461Z,0.30
2018-12-15T19:38:50.960Z,0.60
2018-12-15T19:41:18.444Z,0.60
2018-12-15T19:43:45.944Z,0.60
2018-12-15T19:46:13.422Z,0.50
2018-12-15T19:48:40.910Z,0.40
2018-12-15T19:51:08.377Z,0.30
2018-12-15T19:53:35.882Z,0.50
2018-12-15T19:56:03.374Z,0.50
2018-12-15T19:58:30.994Z,0.50
2018-12-15T20:00:58.498Z,0.40
2018-12-15T20:03:26.122Z,0.50
2018-12-15T20:05:53.598Z,0.40
2018-12-15T20:08:21.073Z,0.50
2018-12-15T20:10:48.590Z,0.10
2018-12-15T20:13:16.091Z,0.10
2018-12-15T20:15:43.585Z,0.20
2018-12-15T20:18:11.087Z,0.30
2018-12-15T20:20:38.684Z,0.10
2018-12-15T20:23:06.243Z,0.10
2018-12-15T20:25:33.717Z,0.10
2018-12-15T20:28:01.414Z,0.00
2018-12-15T20:30:28.905Z,0.00
2018-12-15T20:32:56.377Z,0.10
2018-12-15T20:35:23.971Z,0.30
2018-12-15T20:37:51.470Z,0.00
2018-12-15T20:40:18.973Z,0.10
2018-12-15T20:42:46.469Z,0.10
2018-12-15T20:45:13.967Z,0.20
2018-12-15T20:47:42.375Z,0.10
2018-12-15T20:50:10.003Z,0.10
2018-12-15T20:52:37.497Z,-0.10
2018-12-15T20:55:05.137Z,0.00
2018-12-15T20:57:33.577Z,0.00
2018-12-15T21:00:01.081Z,0.00
2018-12-15T21:02:28.566Z,0.00
2018-12-15T21:04:56.055Z,0.10
2018-12-15T21:07:23.571Z,-0.10
2018-12-15T21:09:51.784Z,-0.10
2018-12-15T21:12:19.299Z,-0.10
2018-12-15T21:14:46.773Z,0.00
2018-12-15T21:17:14.261Z,0.10
2018-12-15T21:19:47.702Z,0.00
2018-12-15T21:22:11.310Z,-0.10
2018-12-15T21:24:38.794Z,-0.10
2018-12-15T21:27:06.746Z,-0.10
2018-12-15T21:29:34.214Z,0.00
2018-12-15T21:32:01.764Z,0.00
2018-12-15T21:34:29.252Z,0.00
2018-12-15T21:36:56.736Z,0.00
2018-12-15T21:39:24.205Z,0.00
2018-12-15T21:41:51.706Z,-0.10
2018-12-15T21:44:19.166Z,0.00
2018-12-15T21:46:46.678Z,-0.10
2018-12-15T21:49:14.160Z,0.00
2018-12-15T21:51:41.657Z,0.00
2018-12-15T21:54:09.163Z,0.00
2018-12-15T21:56:38.123Z,0.00
2018-12-15T21:59:05.612Z,0.00
2018-12-15T22:01:33.105Z,-0.10
2018-12-15T22:04:00.596Z,-0.10
2018-12-15T22:06:29.224Z,0.00
2018-12-15T22:08:56.699Z,0.00
2018-12-15T22:11:24.197Z,-0.10
2018-12-15T22:13:51.699Z,-0.10
2018-12-15T22:16:19.685Z,0.00
2018-12-15T22:18:47.227Z,0.10
2018-12-15T22:21:14.707Z,0.00
2018-12-15T22:23:42.199Z,0.00
2018-12-15T22:26:09.676Z,0.00
2018-12-15T22:28:37.194Z,0.00
2018-12-15T22:31:04.679Z,0.00
2018-12-15T22:33:32.167Z,0.10
2018-12-15T22:35:59.692Z,0.30
2018-12-15T22:38:27.307Z,0.20
2018-12-15T22:40:54.883Z,0.20
2018-12-15T22:43:22.370Z,0.10
2018-12-15T22:45:49.848Z,0.10
2018-12-15T22:48:17.360Z,0.10
2018-12-15T22:50:44.850Z,0.00
2018-12-15T22:53:12.500Z,0.10
2018-12-15T22:55:39.984Z,0.20
2018-12-15T22:58:07.488Z,0.10
2018-12-15T23:03:37.703Z,0.00
2018-12-15T23:06:05.729Z,0.10
2018-12-15T23:08:33.737Z,0.20
2018-12-15T23:11:01.229Z,0.10
2018-12-15T23:13:28.725Z,0.00
2018-12-15T23:15:56.224Z,0.10
2018-12-15T23:18:24.419Z,0.10
2018-12-15T23:20:51.897Z,0.20
2018-12-15T23:23:19.439Z,0.00
2018-12-15T23:25:46.935Z,0.00
2018-12-15T23:28:15.609Z,0.00
2018-12-15T23:30:43.149Z,0.00
2018-12-15T23:33:10.652Z,-0.10
2018-12-15T23:35:38.131Z,0.00
2018-12-15T23:38:05.634Z,0.00
2018-12-15T23:40:33.115Z,0.10
2018-12-15T23:43:00.571Z,0.10
2018-12-15T23:45:28.049Z,0.10
2018-12-15T23:47:55.597Z,0.00
2018-12-15T23:50:23.245Z,0.10
2018-12-15T23:52:50.737Z,0.00
2018-12-15T23:55:18.245Z,0.00
2018-12-15T23:57:45.935Z,0.00
